Koun Maru — JK5556 — position and weather

sailwx.info

Track history (hours):
 
Tides and Currents Weather Stations Pressure Air Temp Water Temp Dewpoint Dewpoint Depression Visibility Wind Speed Wind Dir Waves Ship Positions

Koun Maru

Last reported at 2016-May-04 05:33 UTC. Time now 2016-May-04 21:08 UTC.
Position N 34°39' E 135°26'.

Length 40 m.

Type: Tanker. MMSI: 431401871.

Date/timePositionNaut miles runAvg speedWind from/ knotsBaromVisibWave heightAir tempDewpointWater temp
2016-May-04 05:33N 34°39' E 135°26'1110.4
2016-May-04 04:32N 34°37' E 135°13'  
2016-May-01 01:12N 34°11' E 135°05'30 9.8
2016-Apr-30 22:07N 34°37' E 135°25'2 0.1
2016-Apr-30 02:30N 34°39' E 135°26'1 1.0
2016-Apr-30 01:10N 34°39' E 135°25'4 0.2
2016-Apr-29 03:32N 34°35' E 135°23'26 8.5
2016-Apr-29 00:32N 34°13' E 135°07'1 1.4
2016-Apr-28 23:33N 34°13' E 135°09'1 0.6
2016-Apr-28 22:22N 34°12' E 135°08'0 0.0
2016-Apr-28 21:31N 34°12' E 135°08'0 0.0
2016-Apr-28 20:22N 34°12' E 135°08'0 0.0
2016-Apr-28 19:19N 34°12' E 135°08'0 0.0
2016-Apr-28 17:13N 34°12' E 135°08'0 0.0
2016-Apr-28 14:17N 34°12' E 135°08'0 0.0
2016-Apr-28 13:14N 34°12' E 135°08'0 0.0
2016-Apr-28 12:29N 34°12' E 135°08'0 0.0
2016-Apr-28 11:31N 34°12' E 135°08'0 0.0
2016-Apr-28 10:33N 34°12' E 135°08'0 0.0
2016-Apr-28 09:27N 34°12' E 135°08'0 0.0
2016-Apr-28 08:31N 34°12' E 135°08'0 0.0
2016-Apr-28 07:26N 34°12' E 135°08'0 0.0
2016-Apr-28 06:32N 34°12' E 135°08'28 1.2
2016-Apr-27 06:32N 34°38' E 135°21'1010.0
2016-Apr-27 05:33N 34°36' E 135°10'2 0.0
2016-Apr-25 09:32N 34°37' E 135°08'12 3.6
2016-Apr-25 06:12N 34°31' E 135°20'  
Track history (hours):
 
Tides and Currents Weather Stations Pressure Air Temp Water Temp Dewpoint Dewpoint Depression Visibility Wind Speed Wind Dir Waves Ship Positions

Koun Maru

Last reported at 2016-May-04 05:33 UTC. Time now 2016-May-04 21:08 UTC.
Position N 34°39' E 135°26'.

Length 40 m.

Type: Tanker. MMSI: 431401871.

Date/timePositionNaut miles runAvg speedWind from/ knotsBaromVisibWave heightAir tempDewpointWater temp
2016-May-04 05:33N 34°39' E 135°26'1110.4
2016-May-04 04:32N 34°37' E 135°13'  
2016-May-01 01:12N 34°11' E 135°05'30 9.8
2016-Apr-30 22:07N 34°37' E 135°25'2 0.1
2016-Apr-30 02:30N 34°39' E 135°26'1 1.0
2016-Apr-30 01:10N 34°39' E 135°25'4 0.2
2016-Apr-29 03:32N 34°35' E 135°23'26 8.5
2016-Apr-29 00:32N 34°13' E 135°07'1 1.4
2016-Apr-28 23:33N 34°13' E 135°09'1 0.6
2016-Apr-28 22:22N 34°12' E 135°08'0 0.0
2016-Apr-28 21:31N 34°12' E 135°08'0 0.0
2016-Apr-28 20:22N 34°12' E 135°08'0 0.0
2016-Apr-28 19:19N 34°12' E 135°08'0 0.0
2016-Apr-28 17:13N 34°12' E 135°08'0 0.0
2016-Apr-28 14:17N 34°12' E 135°08'0 0.0
2016-Apr-28 13:14N 34°12' E 135°08'0 0.0
2016-Apr-28 12:29N 34°12' E 135°08'0 0.0
2016-Apr-28 11:31N 34°12' E 135°08'0 0.0
2016-Apr-28 10:33N 34°12' E 135°08'0 0.0
2016-Apr-28 09:27N 34°12' E 135°08'0 0.0
2016-Apr-28 08:31N 34°12' E 135°08'0 0.0
2016-Apr-28 07:26N 34°12' E 135°08'0 0.0
2016-Apr-28 06:32N 34°12' E 135°08'28 1.2
2016-Apr-27 06:32N 34°38' E 135°21'1010.0
2016-Apr-27 05:33N 34°36' E 135°10'2 0.0
2016-Apr-25 09:32N 34°37' E 135°08'12 3.6
2016-Apr-25 06:12N 34°31' E 135°20'  

Dump ship's entire track history